Sandusky, Indiana
Current Conditions -  °F | °C
As of 5:45 PM on Tuesday 27 Jan 2015 (Local Time) from KBAK Reporting Station
Clear Clear  
Wind Chill: 21°   Ceiling: Unl
Heat Index: 28°   Visibility: 10mi
Dew Point: 14°   Wind: 7mph
Humidity: 55%   Direction: 340°NNW
Pressure: 30.18"   Gusts: NA
Location:  39.3206°N, 85.4768°W
Report Text: KBAK 272245Z 34006KT 10SM SKC M02/M10 A3018
Loading
Personal Weather Stations






























Interactive Weather Map New forecast layout! Learn more

10-Day Weather Forecast

Advertisements
Track Severe Weather on mobile